| time (UTC) | temp F | wind direction | speed knots | gust knots | rain 1hr in | rain 24hr in | rain mn in | humidity % | barometer mb |
| 20260507084100 | 51 | 33 | 2.6 | 5.2 | 0.00 | 0.04 | 0.01 | 80 | 1017.1 |
| 20260507083102 | 51 | 36 | 4.3 | 7.0 | 0.00 | 0.04 | 0.01 | 81 | 1017.1 |
| 20260507082058 | 50 | 22 | 3.5 | 5.2 | 0.00 | 0.05 | 0.01 | 82 | 1017.1 |
| 20260507081100 | 50 | 352 | 1.7 | 3.5 | 0.00 | 0.05 | 0.01 | 82 | 1017.0 |
| 20260507075101 | 49 | 7 | 2.6 | 3.5 | 0.00 | 0.05 | 0.01 | 83 | 1017.0 |
| 20260507074101 | 49 | 336 | 2.6 | 4.3 | 0.00 | 0.05 | 0.01 | 84 | 1017.0 |
| 20260507072057 | 48 | 340 | 2.6 | 4.3 | 0.00 | 0.06 | 0.01 | 87 | 1016.9 |
| 20260507071101 | 48 | 352 | 2.6 | 4.3 | 0.00 | 0.06 | 0.01 | 88 | 1016.9 |
| 20260507070057 | 48 | 349 | 2.6 | 4.3 | 0.00 | 0.06 | 0.01 | 88 | 1016.9 |
| 20260507064058 | 47 | 329 | 1.7 | 2.6 | 0.00 | 0.06 | 0.01 | 88 | 1016.8 |
| 20260507063053 | 47 | 356 | 2.6 | 2.6 | 0.00 | 0.06 | 0.01 | 89 | 1016.7 |
| 20260507062057 | 47 | 347 | 1.7 | 2.6 | 0.00 | 0.07 | 0.01 | 90 | 1016.6 |
| 20260507061057 | 47 | 354 | 0.9 | 1.7 | 0.00 | 0.09 | 0.01 | 90 | 1016.5 |
| 20260507060056 | 46 | 356 | 1.7 | 1.7 | 0.00 | 0.09 | 0.01 | 91 | 1016.5 |
| 20260507055053 | 46 | 350 | 1.7 | 1.7 | 0.00 | 0.11 | 0.01 | 91 | 1016.4 |
| 20260507054056 | 46 | 356 | 1.7 | 2.6 | 0.00 | 0.13 | 0.01 | 91 | 1016.3 |
| 20260507052056 | 45 | 354 | 1.7 | 1.7 | 0.00 | 0.14 | 0.01 | 94 | 1016.2 |
| 20260507051059 | 45 | 343 | 0.9 | 1.7 | 0.00 | 0.15 | 0.01 | 96 | 1016.1 |
| 20260507050055 | 45 | 326 | 0.0 | 0.9 | 0.00 | 0.16 | 0.01 | 97 | 1016.0 |
| 20260507045056 | 45 | 330 | 0.0 | 0.9 | 0.00 | 0.17 | 0.01 | 97 | 1015.9 |
| 20260507044057 | 45 | 340 | 0.9 | 1.7 | 0.00 | 0.17 | 0.01 | 98 | 1015.9 |
| 20260507043056 | 45 | 354 | 0.9 | 0.9 | 0.00 | 0.18 | 0.01 | 98 | 1015.8 |
| 20260507042100 | 45 | 350 | 0.0 | 0.9 | 0.00 | 0.19 | 0.01 | 97 | 1015.7 |
| 20260507041057 | 45 | 350 | 0.9 | 0.9 | 0.00 | 0.20 | 0.01 | 97 | 1015.6 |
| 20260507040058 | 45 | 342 | 0.0 | 0.0 | 0.00 | 0.20 | 0.01 | 96 | 1015.5 |
| 20260507035058 | 45 | 19 | 0.9 | 0.9 | 0.00 | 0.21 | 0.01 | 96 | 1015.4 |
| 20260507034056 | 45 | 123 | 0.0 | 0.9 | 0.00 | 0.21 | 0.01 | 96 | 1015.4 |
| 20260507033055 | 45 | 290 | 0.0 | 0.0 | 0.00 | 0.21 | 0.01 | 95 | 1015.4 |
| 20260507032057 | 45 | 335 | 0.9 | 1.7 | 0.00 | 0.22 | 0.01 | 95 | 1015.4 |
| 20260507031056 | 45 | 3 | 1.7 | 1.7 | 0.00 | 0.22 | 0.01 | 95 | 1015.4 |
| 20260507030056 | 45 | 358 | 1.7 | 2.6 | 0.01 | 0.23 | 0.01 | 96 | 1015.3 |
| 20260507024055 | 45 | 356 | 1.7 | 3.5 | 0.01 | 0.24 | 0.01 | 96 | 1015.2 |
| 20260507023054 | 45 | 351 | 1.7 | 3.5 | 0.01 | 0.24 | 0.01 | 96 | 1015.2 |
| 20260507021057 | 45 | 9 | 2.6 | 3.5 | 0.01 | 0.24 | 0.01 | 96 | 1015.0 |
| 20260507015055 | 45 | 4 | 3.5 | 6.1 | 0.00 | 0.24 | 0.00 | 96 | 1014.9 |
| 20260507014057 | 45 | 359 | 3.5 | 5.2 | 0.00 | 0.24 | 0.00 | 96 | 1014.9 |
| 20260507013055 | 45 | 2 | 3.5 | 5.2 | 0.00 | 0.24 | 0.00 | 96 | 1014.9 |
| 20260507012054 | 45 | 359 | 2.6 | 4.3 | 0.00 | 0.25 | 0.00 | 97 | 1014.9 |
| 20260507010100 | 45 | 1 | 2.6 | 4.3 | 0.00 | 0.26 | 0.00 | 97 | 1014.8 |
| 20260507005058 | 45 | 354 | 2.6 | 3.5 | 0.00 | 0.26 | 0.00 | 97 | 1014.8 |
| 20260507004058 | 45 | 343 | 1.7 | 3.5 | 0.00 | 0.27 | 0.00 | 97 | 1014.8 |
| 20260507003054 | 45 | 339 | 1.7 | 2.6 | 0.00 | 0.27 | 0.00 | 97 | 1014.7 |
| 20260507002056 | 45 | 342 | 1.7 | 2.6 | 0.00 | 0.28 | 0.00 | 97 | 1014.7 |
| 20260507001055 | 45 | 341 | 1.7 | 3.5 | 0.00 | 0.28 | 0.00 | 97 | 1014.7 |
| 20260507000059 | 45 | 341 | 1.7 | 1.7 | 0.00 | 0.28 | 0.00 | 96 | 1014.7 |
| 20260506235105 | 45 | 342 | 1.7 | 3.5 | 0.00 | 0.29 | 0.00 | 96 | 1014.6 |
| 20260506234104 | 45 | 346 | 1.7 | 3.5 | 0.00 | 0.29 | 0.00 | 96 | 1014.5 |
| 20260506233104 | 45 | 344 | 1.7 | 2.6 | 0.00 | 0.29 | 0.00 | 95 | 1014.5 |
| 20260506231103 | 45 | 341 | 2.6 | 3.5 | 0.00 | 0.31 | 0.00 | 95 | 1014.4 |
| 20260506230105 | 45 | 341 | 2.6 | 2.6 | 0.00 | 0.31 | 0.00 | 95 | 1014.3 |
| 20260506225103 | 45 | 350 | 2.6 | 3.5 | 0.00 | 0.31 | 0.00 | 95 | 1014.2 |
| 20260506224105 | 44 | 343 | 2.6 | 3.5 | 0.00 | 0.31 | 0.00 | 94 | 1014.2 |
| 20260506223103 | 44 | 339 | 2.6 | 3.5 | 0.00 | 0.32 | 0.00 | 95 | 1014.1 |
| 20260506222104 | 44 | 335 | 2.6 | 3.5 | 0.00 | 0.32 | 0.00 | 95 | 1014.0 |
| 20260506221104 | 44 | 331 | 1.7 | 2.6 | 0.00 | 0.33 | 0.00 | 96 | 1014.0 |
| 20260506220115 | 43 | 329 | 1.7 | 2.6 | 0.00 | 0.34 | 0.00 | 96 | 1014.0 |
| 20260506214110 | 44 | 326 | 1.7 | 1.7 | 0.00 | 0.35 | 0.34 | 94 | 1013.8 |
| 20260506213107 | 44 | 335 | 2.6 | 3.5 | 0.00 | 0.35 | 0.34 | 93 | 1013.7 |
| 20260506212108 | 44 | 336 | 2.6 | 3.5 | 0.00 | 0.36 | 0.34 | 92 | 1013.5 |
| 20260506211108 | 45 | 337 | 1.7 | 4.3 | 0.00 | 0.37 | 0.34 | 91 | 1013.5 |
| 20260506210109 | 46 | 342 | 2.6 | 3.5 | 0.00 | 0.38 | 0.34 | 88 | 1013.3 |
| 20260506204106 | 47 | 348 | 3.5 | 6.1 | 0.00 | 0.39 | 0.34 | 86 | 1013.0 |
| 20260506203109 | 47 | 340 | 2.6 | 4.3 | 0.00 | 0.39 | 0.34 | 85 | 1012.9 |
| 20260506202110 | 48 | 334 | 2.6 | 4.3 | 0.00 | 0.40 | 0.34 | 84 | 1012.9 |
| 20260506201109 | 49 | 349 | 3.5 | 4.3 | 0.00 | 0.41 | 0.34 | 84 | 1012.7 |
| 20260506200108 | 49 | 356 | 4.3 | 7.0 | 0.00 | 0.42 | 0.34 | 82 | 1012.6 |
| 20260506195108 | 49 | 354 | 4.3 | 7.8 | 0.00 | 0.43 | 0.34 | 81 | 1012.5 |
| 20260506194110 | 50 | 352 | 3.5 | 5.2 | 0.00 | 0.44 | 0.34 | 84 | 1012.5 |
| 20260506193109 | 50 | 358 | 2.6 | 4.3 | 0.00 | 0.44 | 0.34 | 85 | 1012.4 |
| 20260506192110 | 50 | 7 | 2.6 | 3.5 | 0.00 | 0.45 | 0.34 | 86 | 1012.2 |
| 20260506191106 | 50 | 12 | 2.6 | 4.3 | 0.00 | 0.46 | 0.34 | 86 | 1012.1 |
| 20260506190109 | 51 | 359 | 3.5 | 6.1 | 0.00 | 0.46 | 0.34 | 87 | 1012.1 |
| 20260506185107 | 51 | 352 | 3.5 | 6.1 | 0.00 | 0.48 | 0.34 | 88 | 1012.0 |
| 20260506184100 | 51 | 343 | 1.7 | 2.6 | 0.00 | 0.49 | 0.34 | 89 | 1011.8 |
| 20260506183106 | 51 | 299 | 1.7 | 2.6 | 0.00 | 0.50 | 0.34 | 89 | 1011.7 |
| 20260506182108 | 51 | 302 | 1.7 | 2.6 | 0.00 | 0.52 | 0.34 | 88 | 1011.6 |
| 20260506181101 | 51 | 300 | 2.6 | 4.3 | 0.00 | 0.54 | 0.34 | 88 | 1011.5 |
| 20260506180107 | 51 | 304 | 1.7 | 2.6 | 0.00 | 0.55 | 0.34 | 87 | 1011.3 |
| 20260506175105 | 51 | 309 | 2.6 | 4.3 | 0.00 | 0.56 | 0.34 | 87 | 1011.2 |
| 20260506174103 | 51 | 314 | 2.6 | 3.5 | 0.00 | 0.57 | 0.34 | 87 | 1011.2 |
| 20260506173100 | 51 | 314 | 2.6 | 4.3 | 0.00 | 0.57 | 0.34 | 86 | 1011.0 |
| 20260506171102 | 51 | 324 | 3.5 | 5.2 | 0.00 | 0.60 | 0.34 | 84 | 1010.9 |
| 20260506170059 | 51 | 326 | 3.5 | 5.2 | 0.00 | 0.61 | 0.34 | 84 | 1010.8 |
| 20260506165059 | 52 | 333 | 3.5 | 6.1 | 0.00 | 0.61 | 0.34 | 82 | 1010.8 |
| 20260506164102 | 52 | 328 | 4.3 | 7.8 | 0.00 | 0.62 | 0.34 | 82 | 1010.7 |
| 20260506163100 | 52 | 336 | 4.3 | 7.8 | 0.00 | 0.62 | 0.34 | 82 | 1010.7 |
| 20260506162105 | 52 | 328 | 4.3 | 8.7 | 0.00 | 0.63 | 0.34 | 80 | 1010.6 |
| 20260506161101 | 53 | 323 | 5.2 | 8.7 | 0.00 | 0.63 | 0.34 | 80 | 1010.6 |
| 20260506160058 | 53 | 319 | 4.3 | 8.7 | 0.00 | 0.63 | 0.34 | 80 | 1010.6 |
| 20260506155101 | 53 | 316 | 4.3 | 7.8 | 0.00 | 0.63 | 0.34 | 83 | 1010.6 |
| 20260506154105 | 53 | 315 | 4.3 | 8.7 | 0.00 | 0.63 | 0.34 | 83 | 1010.6 |
| 20260506151103 | 52 | 319 | 5.2 | 8.7 | 0.00 | 0.63 | 0.34 | 86 | 1010.6 |
| 20260506150100 | 52 | 325 | 3.5 | 7.0 | 0.00 | 0.63 | 0.34 | 85 | 1010.6 |
| 20260506145101 | 52 | 329 | 3.5 | 7.0 | 0.00 | 0.63 | 0.34 | 85 | 1010.6 |
| 20260506144059 | 51 | 327 | 3.5 | 7.0 | 0.00 | 0.63 | 0.34 | 85 | 1010.6 |
| 20260506143057 | 51 | 330 | 3.5 | 7.0 | 0.00 | 0.63 | 0.34 | 86 | 1010.6 |
| 20260506142058 | 51 | 330 | 3.5 | 7.0 | 0.00 | 0.63 | 0.34 | 87 | 1010.7 |
| 20260506141058 | 51 | 332 | 5.2 | 7.8 | 0.00 | 0.63 | 0.34 | 88 | 1010.8 |
| 20260506140106 | 51 | 335 | 3.5 | 7.0 | 0.00 | 0.63 | 0.34 | 89 | 1010.8 |
| 20260506134059 | 51 | 328 | 3.5 | 6.1 | 0.00 | 0.63 | 0.34 | 89 | 1010.7 |
| 20260506133059 | 51 | 335 | 4.3 | 7.0 | 0.00 | 0.63 | 0.34 | 89 | 1010.7 |
| 20260506131059 | 51 | 328 | 5.2 | 9.6 | 0.00 | 0.63 | 0.34 | 85 | 1010.5 |
| 20260506124057 | 50 | 345 | 3.5 | 7.0 | 0.00 | 0.63 | 0.34 | 90 | 1010.6 |
| 20260506123100 | 50 | 350 | 5.2 | 7.8 | 0.00 | 0.63 | 0.34 | 90 | 1010.5 |
| 20260506122058 | 50 | 355 | 6.1 | 8.7 | 0.00 | 0.63 | 0.34 | 91 | 1010.5 |
| 20260506121055 | 50 | 350 | 7.0 | 10.4 | 0.00 | 0.63 | 0.34 | 91 | 1010.4 |
| 20260506120056 | 50 | 356 | 6.1 | 10.4 | 0.00 | 0.63 | 0.34 | 91 | 1010.3 |
| 20260506115057 | 50 | 353 | 7.0 | 13.0 | 0.00 | 0.63 | 0.34 | 92 | 1010.3 |
| 20260506114058 | 49 | 354 | 7.0 | 12.2 | 0.00 | 0.63 | 0.34 | 93 | 1010.4 |
| 20260506113059 | 49 | 359 | 7.0 | 11.3 | 0.00 | 0.63 | 0.34 | 94 | 1010.3 |
| 20260506112059 | 49 | 357 | 7.8 | 12.2 | 0.00 | 0.63 | 0.34 | 96 | 1010.4 |
| 20260506111058 | 48 | 354 | 7.0 | 10.4 | 0.00 | 0.63 | 0.34 | 98 | 1010.5 |
| 20260506110057 | 48 | 351 | 7.0 | 11.3 | 0.01 | 0.63 | 0.34 | 99 | 1010.6 |
| 20260506104058 | 47 | 353 | 6.1 | 9.6 | 0.02 | 0.63 | 0.34 | 99 | 1010.6 |
| 20260506103059 | 47 | 352 | 6.1 | 9.6 | 0.02 | 0.63 | 0.34 | 10 | 1010.6 |
| 20260506102059 | 47 | 354 | 6.1 | 8.7 | 0.02 | 0.63 | 0.34 | 10 | 1010.5 |
| 20260506101057 | 47 | 352 | 4.3 | 7.8 | 0.02 | 0.63 | 0.34 | 10 | 1010.5 |
| 20260506100056 | 46 | 354 | 4.3 | 7.8 | 0.02 | 0.63 | 0.34 | 10 | 1010.4 |
| 20260506095058 | 46 | 349 | 4.3 | 7.0 | 0.02 | 0.62 | 0.33 | 10 | 1010.3 |
| 20260506094059 | 46 | 347 | 4.3 | 6.1 | 0.02 | 0.62 | 0.33 | 10 | 1010.2 |
| 20260506092057 | 46 | 355 | 4.3 | 7.0 | 0.02 | 0.61 | 0.32 | 10 | 1010.1 |
| 20260506091057 | 46 | 352 | 5.2 | 7.8 | 0.02 | 0.61 | 0.31 | 10 | 1010.1 |
| 20260506090059 | 46 | 347 | 4.3 | 8.7 | 0.02 | 0.61 | 0.31 | 10 | 1010.0 |
| 20260506085058 | 46 | 346 | 5.2 | 8.7 | 0.02 | 0.61 | 0.31 | 10 | 1009.9 |